sensor_id;sensor_type;location;lat;lon;timestamp;P1;durP1;ratioP1;P2;durP2;ratioP2
11439;SDS011;5776;51.814;4.510;2023-04-24T00:00:57;1.30;;;0.60;;
11439;SDS011;5776;51.814;4.510;2023-04-24T00:03:24;0.93;;;0.70;;
11439;SDS011;5776;51.814;4.510;2023-04-24T00:05:51;1.33;;;0.83;;
11439;SDS011;5776;51.814;4.510;2023-04-24T00:08:17;1.17;;;0.83;;
11439;SDS011;5776;51.814;4.510;2023-04-24T00:10:44;2.07;;;0.90;;
11439;SDS011;5776;51.814;4.510;2023-04-24T00:13:10;1.57;;;0.90;;
11439;SDS011;5776;51.814;4.510;2023-04-24T00:15:35;2.97;;;1.10;;
11439;SDS011;5776;51.814;4.510;2023-04-24T00:18:01;3.50;;;1.10;;
11439;SDS011;5776;51.814;4.510;2023-04-24T00:20:28;1.93;;;1.27;;
11439;SDS011;5776;51.814;4.510;2023-04-24T00:22:55;2.20;;;1.63;;
11439;SDS011;5776;51.814;4.510;2023-04-24T00:25:21;2.27;;;1.33;;
11439;SDS011;5776;51.814;4.510;2023-04-24T00:27:47;1.83;;;1.50;;
11439;SDS011;5776;51.814;4.510;2023-04-24T00:30:13;1.80;;;1.30;;
11439;SDS011;5776;51.814;4.510;2023-04-24T00:32:39;3.37;;;1.40;;
11439;SDS011;5776;51.814;4.510;2023-04-24T00:35:05;2.43;;;1.70;;
11439;SDS011;5776;51.814;4.510;2023-04-24T00:37:32;3.90;;;2.10;;
11439;SDS011;5776;51.814;4.510;2023-04-24T00:39:58;2.93;;;1.70;;
11439;SDS011;5776;51.814;4.510;2023-04-24T00:42:24;3.87;;;2.07;;
11439;SDS011;5776;51.814;4.510;2023-04-24T00:44:51;4.03;;;1.70;;
11439;SDS011;5776;51.814;4.510;2023-04-24T00:47:17;3.50;;;1.57;;
11439;SDS011;5776;51.814;4.510;2023-04-24T00:49:44;2.13;;;1.53;;
11439;SDS011;5776;51.814;4.510;2023-04-24T00:52:10;3.33;;;0.90;;
11439;SDS011;5776;51.814;4.510;2023-04-24T00:54:37;1.63;;;1.00;;
11439;SDS011;5776;51.814;4.510;2023-04-24T00:57:03;1.70;;;0.77;;
11439;SDS011;5776;51.814;4.510;2023-04-24T00:59:30;2.60;;;0.90;;
11439;SDS011;5776;51.814;4.510;2023-04-24T01:01:56;2.20;;;1.10;;
11439;SDS011;5776;51.814;4.510;2023-04-24T01:04:23;2.93;;;1.10;;
11439;SDS011;5776;51.814;4.510;2023-04-24T01:06:50;1.93;;;1.30;;
11439;SDS011;5776;51.814;4.510;2023-04-24T01:09:16;3.53;;;1.63;;
11439;SDS011;5776;51.814;4.510;2023-04-24T01:11:44;2.93;;;1.87;;
11439;SDS011;5776;51.814;4.510;2023-04-24T01:14:10;3.07;;;1.80;;
11439;SDS011;5776;51.814;4.510;2023-04-24T01:16:36;4.00;;;2.60;;
11439;SDS011;5776;51.814;4.510;2023-04-24T01:19:04;5.10;;;2.20;;
11439;SDS011;5776;51.814;4.510;2023-04-24T01:21:33;5.33;;;2.70;;
11439;SDS011;5776;51.814;4.510;2023-04-24T01:24:02;4.03;;;2.47;;
11439;SDS011;5776;51.814;4.510;2023-04-24T01:26:32;7.70;;;3.20;;
11439;SDS011;5776;51.814;4.510;2023-04-24T01:28:58;5.60;;;3.13;;
11439;SDS011;5776;51.814;4.510;2023-04-24T01:31:24;4.73;;;3.77;;
11439;SDS011;5776;51.814;4.510;2023-04-24T01:33:50;5.00;;;2.87;;
11439;SDS011;5776;51.814;4.510;2023-04-24T01:36:16;5.17;;;3.43;;
11439;SDS011;5776;51.814;4.510;2023-04-24T01:38:43;5.77;;;3.60;;
11439;SDS011;5776;51.814;4.510;2023-04-24T01:41:09;6.20;;;3.83;;
11439;SDS011;5776;51.814;4.510;2023-04-24T01:43:35;4.40;;;3.17;;
11439;SDS011;5776;51.814;4.510;2023-04-24T01:46:02;4.67;;;2.87;;
11439;SDS011;5776;51.814;4.510;2023-04-24T01:48:28;5.67;;;3.40;;
11439;SDS011;5776;51.814;4.510;2023-04-24T01:50:54;8.90;;;4.20;;
11439;SDS011;5776;51.814;4.510;2023-04-24T01:53:21;8.13;;;4.40;;
11439;SDS011;5776;51.814;4.510;2023-04-24T01:55:47;7.13;;;4.33;;
11439;SDS011;5776;51.814;4.510;2023-04-24T01:58:13;9.87;;;5.27;;
11439;SDS011;5776;51.814;4.510;2023-04-24T02:00:39;7.40;;;4.93;;
11439;SDS011;5776;51.814;4.510;2023-04-24T02:03:05;7.43;;;5.07;;
11439;SDS011;5776;51.814;4.510;2023-04-24T02:05:31;8.70;;;5.30;;
11439;SDS011;5776;51.814;4.510;2023-04-24T02:07:57;6.67;;;4.43;;
11439;SDS011;5776;51.814;4.510;2023-04-24T02:10:23;6.10;;;3.30;;
11439;SDS011;5776;51.814;4.510;2023-04-24T02:12:50;4.87;;;2.83;;
11439;SDS011;5776;51.814;4.510;2023-04-24T02:15:16;7.40;;;2.83;;
11439;SDS011;5776;51.814;4.510;2023-04-24T02:17:43;5.47;;;2.20;;
11439;SDS011;5776;51.814;4.510;2023-04-24T02:20:09;3.67;;;2.20;;
11439;SDS011;5776;51.814;4.510;2023-04-24T02:22:35;4.73;;;2.30;;
11439;SDS011;5776;51.814;4.510;2023-04-24T02:25:01;3.33;;;2.40;;
11439;SDS011;5776;51.814;4.510;2023-04-24T02:27:28;9.03;;;2.83;;
11439;SDS011;5776;51.814;4.510;2023-04-24T02:29:53;8.70;;;3.50;;
11439;SDS011;5776;51.814;4.510;2023-04-24T02:32:19;5.27;;;2.77;;
11439;SDS011;5776;51.814;4.510;2023-04-24T02:34:45;6.43;;;3.27;;
11439;SDS011;5776;51.814;4.510;2023-04-24T02:37:11;7.30;;;3.40;;
11439;SDS011;5776;51.814;4.510;2023-04-24T02:39:37;8.03;;;3.50;;
11439;SDS011;5776;51.814;4.510;2023-04-24T02:42:03;11.30;;;3.67;;
11439;SDS011;5776;51.814;4.510;2023-04-24T02:44:29;6.30;;;2.70;;
11439;SDS011;5776;51.814;4.510;2023-04-24T02:46:55;3.97;;;1.80;;
11439;SDS011;5776;51.814;4.510;2023-04-24T02:49:21;6.23;;;1.90;;
11439;SDS011;5776;51.814;4.510;2023-04-24T02:51:47;4.07;;;1.63;;
11439;SDS011;5776;51.814;4.510;2023-04-24T02:54:12;7.10;;;1.60;;
11439;SDS011;5776;51.814;4.510;2023-04-24T02:56:38;5.73;;;1.70;;
11439;SDS011;5776;51.814;4.510;2023-04-24T02:59:04;4.37;;;1.70;;
11439;SDS011;5776;51.814;4.510;2023-04-24T03:01:30;2.87;;;1.60;;
11439;SDS011;5776;51.814;4.510;2023-04-24T03:03:56;2.93;;;1.43;;
11439;SDS011;5776;51.814;4.510;2023-04-24T03:06:23;3.50;;;1.40;;
11439;SDS011;5776;51.814;4.510;2023-04-24T03:08:49;2.80;;;1.60;;
11439;SDS011;5776;51.814;4.510;2023-04-24T03:11:14;3.07;;;1.40;;
11439;SDS011;5776;51.814;4.510;2023-04-24T03:13:40;4.73;;;1.40;;
11439;SDS011;5776;51.814;4.510;2023-04-24T03:16:06;2.73;;;1.30;;
11439;SDS011;5776;51.814;4.510;2023-04-24T03:18:32;2.73;;;1.30;;
11439;SDS011;5776;51.814;4.510;2023-04-24T03:20:58;1.33;;;1.23;;
11439;SDS011;5776;51.814;4.510;2023-04-24T03:23:24;2.80;;;1.23;;
11439;SDS011;5776;51.814;4.510;2023-04-24T03:25:50;1.97;;;1.20;;
11439;SDS011;5776;51.814;4.510;2023-04-24T03:28:16;2.93;;;0.97;;
11439;SDS011;5776;51.814;4.510;2023-04-24T03:30:42;2.93;;;1.30;;
11439;SDS011;5776;51.814;4.510;2023-04-24T03:33:08;1.00;;;0.90;;
11439;SDS011;5776;51.814;4.510;2023-04-24T03:35:35;3.10;;;0.97;;
11439;SDS011;5776;51.814;4.510;2023-04-24T03:38:01;2.27;;;1.00;;
11439;SDS011;5776;51.814;4.510;2023-04-24T03:40:29;1.60;;;1.20;;
11439;SDS011;5776;51.814;4.510;2023-04-24T03:42:55;1.83;;;0.87;;
11439;SDS011;5776;51.814;4.510;2023-04-24T03:45:22;1.53;;;0.90;;
11439;SDS011;5776;51.814;4.510;2023-04-24T03:47:47;2.23;;;0.90;;
11439;SDS011;5776;51.814;4.510;2023-04-24T03:50:14;2.43;;;1.20;;
11439;SDS011;5776;51.814;4.510;2023-04-24T03:52:40;4.90;;;1.63;;
11439;SDS011;5776;51.814;4.510;2023-04-24T03:55:06;7.27;;;1.70;;
11439;SDS011;5776;51.814;4.510;2023-04-24T03:57:32;4.57;;;1.87;;
11439;SDS011;5776;51.814;4.510;2023-04-24T03:59:58;4.63;;;1.60;;
11439;SDS011;5776;51.814;4.510;2023-04-24T04:02:24;6.40;;;1.73;;
11439;SDS011;5776;51.814;4.510;2023-04-24T04:04:50;3.87;;;1.87;;
11439;SDS011;5776;51.814;4.510;2023-04-24T04:07:16;4.77;;;1.97;;
11439;SDS011;5776;51.814;4.510;2023-04-24T04:09:41;3.70;;;1.90;;
11439;SDS011;5776;51.814;4.510;2023-04-24T04:12:07;4.77;;;1.93;;
11439;SDS011;5776;51.814;4.510;2023-04-24T04:14:33;3.87;;;1.80;;
11439;SDS011;5776;51.814;4.510;2023-04-24T04:17:00;8.90;;;2.50;;
11439;SDS011;5776;51.814;4.510;2023-04-24T04:19:26;2.87;;;1.80;;
11439;SDS011;5776;51.814;4.510;2023-04-24T04:21:52;4.70;;;2.10;;
11439;SDS011;5776;51.814;4.510;2023-04-24T04:24:19;6.20;;;2.50;;
11439;SDS011;5776;51.814;4.510;2023-04-24T04:26:46;5.07;;;2.10;;
11439;SDS011;5776;51.814;4.510;2023-04-24T04:29:13;4.27;;;1.40;;
11439;SDS011;5776;51.814;4.510;2023-04-24T04:31:39;2.93;;;1.70;;
11439;SDS011;5776;51.814;4.510;2023-04-24T04:34:05;5.20;;;1.67;;
11439;SDS011;5776;51.814;4.510;2023-04-24T04:36:33;2.00;;;1.27;;
11439;SDS011;5776;51.814;4.510;2023-04-24T04:39:02;4.10;;;1.45;;
11439;SDS011;5776;51.814;4.510;2023-04-24T04:41:28;1.93;;;1.30;;
11439;SDS011;5776;51.814;4.510;2023-04-24T04:43:55;5.77;;;1.70;;
11439;SDS011;5776;51.814;4.510;2023-04-24T04:46:24;2.67;;;1.33;;
11439;SDS011;5776;51.814;4.510;2023-04-24T04:48:51;4.53;;;1.77;;
11439;SDS011;5776;51.814;4.510;2023-04-24T04:51:18;4.67;;;2.10;;
11439;SDS011;5776;51.814;4.510;2023-04-24T04:53:44;4.43;;;1.80;;
11439;SDS011;5776;51.814;4.510;2023-04-24T04:56:10;7.33;;;2.47;;
11439;SDS011;5776;51.814;4.510;2023-04-24T04:58:36;5.50;;;2.23;;
11439;SDS011;5776;51.814;4.510;2023-04-24T05:01:02;6.10;;;2.40;;
11439;SDS011;5776;51.814;4.510;2023-04-24T05:03:28;3.73;;;2.33;;
11439;SDS011;5776;51.814;4.510;2023-04-24T05:05:53;5.43;;;2.93;;
11439;SDS011;5776;51.814;4.510;2023-04-24T05:08:19;6.93;;;2.90;;
11439;SDS011;5776;51.814;4.510;2023-04-24T05:10:45;6.77;;;2.77;;
11439;SDS011;5776;51.814;4.510;2023-04-24T05:13:10;5.83;;;3.20;;
11439;SDS011;5776;51.814;4.510;2023-04-24T05:15:36;4.30;;;3.10;;
11439;SDS011;5776;51.814;4.510;2023-04-24T05:18:02;9.27;;;4.13;;
11439;SDS011;5776;51.814;4.510;2023-04-24T05:20:28;11.27;;;5.17;;
11439;SDS011;5776;51.814;4.510;2023-04-24T05:22:54;7.77;;;4.37;;
11439;SDS011;5776;51.814;4.510;2023-04-24T05:25:20;16.33;;;5.40;;
11439;SDS011;5776;51.814;4.510;2023-04-24T05:27:46;13.57;;;6.13;;
11439;SDS011;5776;51.814;4.510;2023-04-24T05:30:12;13.43;;;6.73;;
11439;SDS011;5776;51.814;4.510;2023-04-24T05:32:38;17.30;;;6.97;;
11439;SDS011;5776;51.814;4.510;2023-04-24T05:35:04;14.03;;;6.43;;
11439;SDS011;5776;51.814;4.510;2023-04-24T05:37:31;8.00;;;5.17;;
11439;SDS011;5776;51.814;4.510;2023-04-24T05:39:57;15.27;;;5.90;;
11439;SDS011;5776;51.814;4.510;2023-04-24T05:42:23;15.20;;;6.97;;
11439;SDS011;5776;51.814;4.510;2023-04-24T05:44:50;11.20;;;6.50;;
11439;SDS011;5776;51.814;4.510;2023-04-24T05:47:16;11.03;;;6.40;;
11439;SDS011;5776;51.814;4.510;2023-04-24T05:49:42;10.53;;;5.83;;
11439;SDS011;5776;51.814;4.510;2023-04-24T05:52:08;16.43;;;6.20;;
11439;SDS011;5776;51.814;4.510;2023-04-24T05:54:34;15.43;;;6.30;;
11439;SDS011;5776;51.814;4.510;2023-04-24T05:57:00;18.53;;;7.17;;
11439;SDS011;5776;51.814;4.510;2023-04-24T05:59:36;14.30;;;7.00;;
11439;SDS011;5776;51.814;4.510;2023-04-24T06:02:06;10.43;;;5.73;;
11439;SDS011;5776;51.814;4.510;2023-04-24T06:04:32;10.30;;;5.63;;
11439;SDS011;5776;51.814;4.510;2023-04-24T06:06:59;11.60;;;5.77;;
11439;SDS011;5776;51.814;4.510;2023-04-24T06:09:25;14.30;;;5.07;;
11439;SDS011;5776;51.814;4.510;2023-04-24T06:11:51;11.83;;;5.50;;
11439;SDS011;5776;51.814;4.510;2023-04-24T06:14:20;14.33;;;4.80;;
11439;SDS011;5776;51.814;4.510;2023-04-24T06:16:46;14.53;;;4.80;;
11439;SDS011;5776;51.814;4.510;2023-04-24T06:19:12;13.63;;;4.50;;
11439;SDS011;5776;51.814;4.510;2023-04-24T06:21:38;18.50;;;4.47;;
11439;SDS011;5776;51.814;4.510;2023-04-24T06:24:03;12.33;;;4.80;;
11439;SDS011;5776;51.814;4.510;2023-04-24T06:26:32;15.80;;;4.83;;
11439;SDS011;5776;51.814;4.510;2023-04-24T06:28:58;15.70;;;4.43;;
11439;SDS011;5776;51.814;4.510;2023-04-24T06:31:25;12.97;;;4.30;;
11439;SDS011;5776;51.814;4.510;2023-04-24T06:33:51;17.23;;;4.93;;
11439;SDS011;5776;51.814;4.510;2023-04-24T06:36:17;15.43;;;4.47;;
11439;SDS011;5776;51.814;4.510;2023-04-24T06:38:46;14.10;;;4.77;;
11439;SDS011;5776;51.814;4.510;2023-04-24T06:41:11;13.40;;;3.90;;
11439;SDS011;5776;51.814;4.510;2023-04-24T06:43:38;19.37;;;5.13;;
11439;SDS011;5776;51.814;4.510;2023-04-24T06:46:04;13.07;;;4.57;;
11439;SDS011;5776;51.814;4.510;2023-04-24T06:48:30;17.97;;;3.97;;
11439;SDS011;5776;51.814;4.510;2023-04-24T06:50:56;14.07;;;3.83;;
11439;SDS011;5776;51.814;4.510;2023-04-24T06:53:21;14.13;;;4.50;;
11439;SDS011;5776;51.814;4.510;2023-04-24T06:55:48;18.07;;;4.77;;
11439;SDS011;5776;51.814;4.510;2023-04-24T06:58:14;16.00;;;5.00;;
11439;SDS011;5776;51.814;4.510;2023-04-24T07:00:40;12.63;;;3.97;;
11439;SDS011;5776;51.814;4.510;2023-04-24T07:03:06;18.90;;;4.40;;
11439;SDS011;5776;51.814;4.510;2023-04-24T07:05:32;17.33;;;3.63;;
11439;SDS011;5776;51.814;4.510;2023-04-24T07:08:00;17.38;;;4.25;;
11439;SDS011;5776;51.814;4.510;2023-04-24T07:10:27;17.92;;;4.78;;
11439;SDS011;5776;51.814;4.510;2023-04-24T07:12:54;15.50;;;4.07;;
11439;SDS011;5776;51.814;4.510;2023-04-24T07:15:22;14.43;;;3.73;;
11439;SDS011;5776;51.814;4.510;2023-04-24T07:17:51;19.73;;;4.30;;
11439;SDS011;5776;51.814;4.510;2023-04-24T07:20:16;16.90;;;3.90;;
11439;SDS011;5776;51.814;4.510;2023-04-24T07:22:42;17.73;;;3.60;;
11439;SDS011;5776;51.814;4.510;2023-04-24T07:25:08;14.23;;;4.13;;
11439;SDS011;5776;51.814;4.510;2023-04-24T07:27:35;13.93;;;4.13;;
11439;SDS011;5776;51.814;4.510;2023-04-24T07:30:02;12.20;;;3.73;;
11439;SDS011;5776;51.814;4.510;2023-04-24T07:32:29;13.90;;;3.70;;
11439;SDS011;5776;51.814;4.510;2023-04-24T07:34:55;13.67;;;3.27;;
11439;SDS011;5776;51.814;4.510;2023-04-24T07:37:22;10.07;;;3.03;;
11439;SDS011;5776;51.814;4.510;2023-04-24T07:39:51;14.10;;;3.50;;
11439;SDS011;5776;51.814;4.510;2023-04-24T07:42:17;13.37;;;3.90;;
11439;SDS011;5776;51.814;4.510;2023-04-24T07:44:43;10.43;;;3.20;;
11439;SDS011;5776;51.814;4.510;2023-04-24T07:47:09;11.37;;;3.77;;
11439;SDS011;5776;51.814;4.510;2023-04-24T07:49:35;9.27;;;2.40;;
11439;SDS011;5776;51.814;4.510;2023-04-24T07:52:01;12.40;;;2.90;;
11439;SDS011;5776;51.814;4.510;2023-04-24T07:54:28;12.20;;;3.13;;
11439;SDS011;5776;51.814;4.510;2023-04-24T07:56:54;8.97;;;2.60;;
11439;SDS011;5776;51.814;4.510;2023-04-24T07:59:20;12.73;;;3.10;;
11439;SDS011;5776;51.814;4.510;2023-04-24T08:01:46;12.60;;;3.43;;
11439;SDS011;5776;51.814;4.510;2023-04-24T08:04:12;12.00;;;2.60;;
11439;SDS011;5776;51.814;4.510;2023-04-24T08:06:38;9.50;;;2.77;;
11439;SDS011;5776;51.814;4.510;2023-04-24T08:09:04;10.00;;;2.67;;
11439;SDS011;5776;51.814;4.510;2023-04-24T08:11:30;14.23;;;3.50;;
11439;SDS011;5776;51.814;4.510;2023-04-24T08:13:57;12.83;;;3.13;;
11439;SDS011;5776;51.814;4.510;2023-04-24T08:16:23;12.70;;;3.63;;
11439;SDS011;5776;51.814;4.510;2023-04-24T08:18:49;14.80;;;3.27;;
11439;SDS011;5776;51.814;4.510;2023-04-24T08:21:15;16.50;;;3.30;;
11439;SDS011;5776;51.814;4.510;2023-04-24T08:23:42;13.20;;;2.87;;
11439;SDS011;5776;51.814;4.510;2023-04-24T08:26:08;12.70;;;3.03;;
11439;SDS011;5776;51.814;4.510;2023-04-24T08:28:34;8.33;;;3.00;;
11439;SDS011;5776;51.814;4.510;2023-04-24T08:31:00;13.83;;;2.93;;
11439;SDS011;5776;51.814;4.510;2023-04-24T08:33:26;13.57;;;3.10;;
11439;SDS011;5776;51.814;4.510;2023-04-24T08:35:52;10.70;;;2.60;;
11439;SDS011;5776;51.814;4.510;2023-04-24T08:38:17;10.07;;;2.30;;
11439;SDS011;5776;51.814;4.510;2023-04-24T08:40:44;13.70;;;3.00;;
11439;SDS011;5776;51.814;4.510;2023-04-24T08:43:11;11.40;;;2.37;;
11439;SDS011;5776;51.814;4.510;2023-04-24T08:45:39;9.43;;;2.40;;
11439;SDS011;5776;51.814;4.510;2023-04-24T08:48:06;9.23;;;2.53;;
11439;SDS011;5776;51.814;4.510;2023-04-24T08:50:32;7.70;;;1.43;;
11439;SDS011;5776;51.814;4.510;2023-04-24T08:53:00;12.00;;;1.67;;
11439;SDS011;5776;51.814;4.510;2023-04-24T08:55:26;10.17;;;2.43;;
11439;SDS011;5776;51.814;4.510;2023-04-24T08:57:55;7.77;;;2.17;;
11439;SDS011;5776;51.814;4.510;2023-04-24T09:00:22;4.73;;;1.63;;
11439;SDS011;5776;51.814;4.510;2023-04-24T09:02:54;6.37;;;1.77;;
11439;SDS011;5776;51.814;4.510;2023-04-24T09:05:21;6.00;;;1.50;;
11439;SDS011;5776;51.814;4.510;2023-04-24T09:07:49;5.17;;;1.80;;
11439;SDS011;5776;51.814;4.510;2023-04-24T09:10:22;4.33;;;1.30;;
11439;SDS011;5776;51.814;4.510;2023-04-24T09:12:50;7.13;;;1.30;;
11439;SDS011;5776;51.814;4.510;2023-04-24T09:15:20;9.57;;;1.43;;
11439;SDS011;5776;51.814;4.510;2023-04-24T09:17:46;4.20;;;1.50;;
11439;SDS011;5776;51.814;4.510;2023-04-24T09:20:13;6.37;;;1.63;;
11439;SDS011;5776;51.814;4.510;2023-04-24T09:22:39;6.97;;;1.43;;
11439;SDS011;5776;51.814;4.510;2023-04-24T09:25:08;5.10;;;1.80;;
11439;SDS011;5776;51.814;4.510;2023-04-24T09:27:35;3.57;;;0.90;;
11439;SDS011;5776;51.814;4.510;2023-04-24T09:30:01;3.97;;;1.20;;
11439;SDS011;5776;51.814;4.510;2023-04-24T09:32:28;5.57;;;0.90;;
11439;SDS011;5776;51.814;4.510;2023-04-24T09:35:13;4.00;;;1.00;;
11439;SDS011;5776;51.814;4.510;2023-04-24T09:37:41;4.57;;;1.23;;
11439;SDS011;5776;51.814;4.510;2023-04-24T09:42:38;3.80;;;0.97;;
11439;SDS011;5776;51.814;4.510;2023-04-24T09:45:08;5.60;;;1.27;;
11439;SDS011;5776;51.814;4.510;2023-04-24T09:47:36;6.33;;;1.37;;
11439;SDS011;5776;51.814;4.510;2023-04-24T09:50:15;3.97;;;1.10;;
11439;SDS011;5776;51.814;4.510;2023-04-24T09:52:43;4.60;;;1.10;;
11439;SDS011;5776;51.814;4.510;2023-04-24T09:55:11;2.57;;;1.03;;
11439;SDS011;5776;51.814;4.510;2023-04-24T09:57:52;3.57;;;0.90;;
11439;SDS011;5776;51.814;4.510;2023-04-24T10:00:20;3.03;;;0.90;;
11439;SDS011;5776;51.814;4.510;2023-04-24T10:02:59;2.50;;;0.80;;
11439;SDS011;5776;51.814;4.510;2023-04-24T10:05:30;1.83;;;0.60;;
11439;SDS011;5776;51.814;4.510;2023-04-24T10:08:05;2.40;;;0.60;;
11439;SDS011;5776;51.814;4.510;2023-04-24T10:10:33;3.23;;;0.73;;
11439;SDS011;5776;51.814;4.510;2023-04-24T10:13:02;1.73;;;0.60;;
11439;SDS011;5776;51.814;4.510;2023-04-24T10:15:30;5.27;;;0.90;;
11439;SDS011;5776;51.814;4.510;2023-04-24T10:17:57;5.47;;;1.07;;
11439;SDS011;5776;51.814;4.510;2023-04-24T10:20:25;4.33;;;0.60;;
11439;SDS011;5776;51.814;4.510;2023-04-24T10:22:53;3.87;;;1.10;;
11439;SDS011;5776;51.814;4.510;2023-04-24T10:25:20;7.63;;;1.00;;
11439;SDS011;5776;51.814;4.510;2023-04-24T10:27:48;5.40;;;1.20;;
11439;SDS011;5776;51.814;4.510;2023-04-24T10:30:16;3.10;;;0.90;;
11439;SDS011;5776;51.814;4.510;2023-04-24T10:32:43;3.70;;;1.00;;
11439;SDS011;5776;51.814;4.510;2023-04-24T10:35:12;5.23;;;1.30;;
11439;SDS011;5776;51.814;4.510;2023-04-24T10:37:40;5.90;;;1.20;;
11439;SDS011;5776;51.814;4.510;2023-04-24T10:40:09;8.83;;;2.50;;
11439;SDS011;5776;51.814;4.510;2023-04-24T10:42:40;4.50;;;1.27;;
11439;SDS011;5776;51.814;4.510;2023-04-24T10:45:15;6.57;;;1.10;;
11439;SDS011;5776;51.814;4.510;2023-04-24T10:47:50;6.90;;;1.17;;
11439;SDS011;5776;51.814;4.510;2023-04-24T10:50:27;6.60;;;1.10;;
11439;SDS011;5776;51.814;4.510;2023-04-24T10:53:04;4.23;;;1.23;;
11439;SDS011;5776;51.814;4.510;2023-04-24T10:55:42;5.23;;;1.07;;
11439;SDS011;5776;51.814;4.510;2023-04-24T10:58:10;2.80;;;0.73;;
11439;SDS011;5776;51.814;4.510;2023-04-24T11:00:38;6.70;;;0.90;;
11439;SDS011;5776;51.814;4.510;2023-04-24T11:03:05;5.90;;;1.43;;
11439;SDS011;5776;51.814;4.510;2023-04-24T11:05:53;4.43;;;1.20;;
11439;SDS011;5776;51.814;4.510;2023-04-24T11:08:23;8.50;;;1.50;;
11439;SDS011;5776;51.814;4.510;2023-04-24T11:10:55;8.90;;;1.50;;
11439;SDS011;5776;51.814;4.510;2023-04-24T11:13:24;6.70;;;1.23;;
11439;SDS011;5776;51.814;4.510;2023-04-24T11:18:39;2.60;;;0.93;;
11439;SDS011;5776;51.814;4.510;2023-04-24T11:21:15;3.17;;;1.10;;
11439;SDS011;5776;51.814;4.510;2023-04-24T11:23:42;4.57;;;1.30;;
11439;SDS011;5776;51.814;4.510;2023-04-24T11:28:44;4.10;;;1.20;;
11439;SDS011;5776;51.814;4.510;2023-04-24T11:34:11;4.87;;;1.37;;
11439;SDS011;5776;51.814;4.510;2023-04-24T11:36:39;4.10;;;1.17;;
11439;SDS011;5776;51.814;4.510;2023-04-24T11:39:08;6.70;;;1.80;;
11439;SDS011;5776;51.814;4.510;2023-04-24T11:41:35;10.20;;;1.50;;
11439;SDS011;5776;51.814;4.510;2023-04-24T11:44:02;5.93;;;1.47;;
11439;SDS011;5776;51.814;4.510;2023-04-24T11:46:31;7.23;;;1.30;;
11439;SDS011;5776;51.814;4.510;2023-04-24T11:48:57;3.60;;;0.90;;
11439;SDS011;5776;51.814;4.510;2023-04-24T11:51:25;5.67;;;2.00;;
11439;SDS011;5776;51.814;4.510;2023-04-24T11:53:52;3.53;;;0.97;;
11439;SDS011;5776;51.814;4.510;2023-04-24T11:56:21;7.57;;;1.27;;
11439;SDS011;5776;51.814;4.510;2023-04-24T11:58:50;7.33;;;1.50;;
11439;SDS011;5776;51.814;4.510;2023-04-24T12:01:18;4.97;;;1.00;;
11439;SDS011;5776;51.814;4.510;2023-04-24T12:03:47;4.50;;;1.27;;
11439;SDS011;5776;51.814;4.510;2023-04-24T12:06:13;2.43;;;1.00;;
11439;SDS011;5776;51.814;4.510;2023-04-24T12:08:40;7.80;;;1.43;;
11439;SDS011;5776;51.814;4.510;2023-04-24T12:11:06;9.00;;;1.53;;
11439;SDS011;5776;51.814;4.510;2023-04-24T12:13:33;2.57;;;1.00;;
11439;SDS011;5776;51.814;4.510;2023-04-24T12:16:02;2.90;;;0.93;;
11439;SDS011;5776;51.814;4.510;2023-04-24T12:18:30;5.20;;;1.50;;
11439;SDS011;5776;51.814;4.510;2023-04-24T12:21:14;4.43;;;1.27;;
11439;SDS011;5776;51.814;4.510;2023-04-24T12:23:42;5.93;;;1.70;;
11439;SDS011;5776;51.814;4.510;2023-04-24T12:26:19;9.33;;;1.40;;
11439;SDS011;5776;51.814;4.510;2023-04-24T12:28:47;3.63;;;0.93;;
11439;SDS011;5776;51.814;4.510;2023-04-24T12:31:17;2.53;;;1.20;;
11439;SDS011;5776;51.814;4.510;2023-04-24T12:33:43;3.40;;;1.03;;
11439;SDS011;5776;51.814;4.510;2023-04-24T12:36:11;5.03;;;1.10;;
11439;SDS011;5776;51.814;4.510;2023-04-24T12:38:38;5.07;;;1.50;;
11439;SDS011;5776;51.814;4.510;2023-04-24T12:41:11;4.93;;;1.30;;
11439;SDS011;5776;51.814;4.510;2023-04-24T12:43:38;7.97;;;1.60;;
11439;SDS011;5776;51.814;4.510;2023-04-24T12:46:16;6.40;;;1.83;;
11439;SDS011;5776;51.814;4.510;2023-04-24T12:48:42;6.73;;;1.80;;
11439;SDS011;5776;51.814;4.510;2023-04-24T12:51:08;6.97;;;1.80;;
11439;SDS011;5776;51.814;4.510;2023-04-24T12:53:33;4.93;;;1.77;;
11439;SDS011;5776;51.814;4.510;2023-04-24T12:55:59;7.00;;;1.70;;
11439;SDS011;5776;51.814;4.510;2023-04-24T12:58:25;7.70;;;1.60;;
11439;SDS011;5776;51.814;4.510;2023-04-24T13:00:51;6.07;;;2.00;;
11439;SDS011;5776;51.814;4.510;2023-04-24T13:03:17;10.40;;;2.00;;
11439;SDS011;5776;51.814;4.510;2023-04-24T13:05:44;7.57;;;1.83;;
11439;SDS011;5776;51.814;4.510;2023-04-24T13:08:10;9.20;;;1.90;;
11439;SDS011;5776;51.814;4.510;2023-04-24T13:10:35;9.67;;;2.07;;
11439;SDS011;5776;51.814;4.510;2023-04-24T13:13:01;6.97;;;1.97;;
11439;SDS011;5776;51.814;4.510;2023-04-24T13:15:28;12.90;;;2.73;;
11439;SDS011;5776;51.814;4.510;2023-04-24T13:17:54;10.17;;;2.07;;
11439;SDS011;5776;51.814;4.510;2023-04-24T13:20:20;10.67;;;1.90;;
11439;SDS011;5776;51.814;4.510;2023-04-24T13:22:46;10.87;;;2.20;;
11439;SDS011;5776;51.814;4.510;2023-04-24T13:25:12;10.33;;;2.20;;
11439;SDS011;5776;51.814;4.510;2023-04-24T13:27:42;9.80;;;2.40;;
11439;SDS011;5776;51.814;4.510;2023-04-24T13:30:08;16.50;;;2.43;;
11439;SDS011;5776;51.814;4.510;2023-04-24T13:32:34;10.17;;;2.70;;
11439;SDS011;5776;51.814;4.510;2023-04-24T13:35:00;11.83;;;2.47;;
11439;SDS011;5776;51.814;4.510;2023-04-24T13:37:26;9.33;;;2.57;;
11439;SDS011;5776;51.814;4.510;2023-04-24T13:39:52;15.00;;;3.00;;
11439;SDS011;5776;51.814;4.510;2023-04-24T13:42:19;11.97;;;2.57;;
11439;SDS011;5776;51.814;4.510;2023-04-24T13:44:46;7.70;;;2.47;;
11439;SDS011;5776;51.814;4.510;2023-04-24T13:47:12;7.90;;;2.57;;
11439;SDS011;5776;51.814;4.510;2023-04-24T13:49:38;8.63;;;2.73;;
11439;SDS011;5776;51.814;4.510;2023-04-24T13:52:03;10.87;;;2.80;;
11439;SDS011;5776;51.814;4.510;2023-04-24T13:54:29;7.27;;;2.10;;
11439;SDS011;5776;51.814;4.510;2023-04-24T13:56:57;6.77;;;1.90;;
11439;SDS011;5776;51.814;4.510;2023-04-24T13:59:23;6.10;;;1.73;;
11439;SDS011;5776;51.814;4.510;2023-04-24T14:01:49;4.80;;;2.20;;
11439;SDS011;5776;51.814;4.510;2023-04-24T14:04:15;10.60;;;2.70;;
11439;SDS011;5776;51.814;4.510;2023-04-24T14:06:41;6.97;;;2.80;;
11439;SDS011;5776;51.814;4.510;2023-04-24T14:09:07;8.47;;;3.10;;
11439;SDS011;5776;51.814;4.510;2023-04-24T14:11:33;11.63;;;2.57;;
11439;SDS011;5776;51.814;4.510;2023-04-24T14:14:00;11.97;;;2.87;;
11439;SDS011;5776;51.814;4.510;2023-04-24T14:16:26;10.33;;;2.70;;
11439;SDS011;5776;51.814;4.510;2023-04-24T14:18:52;6.63;;;2.50;;
11439;SDS011;5776;51.814;4.510;2023-04-24T14:21:18;8.17;;;3.03;;
11439;SDS011;5776;51.814;4.510;2023-04-24T14:23:44;8.13;;;3.10;;
11439;SDS011;5776;51.814;4.510;2023-04-24T14:26:11;11.33;;;3.10;;
11439;SDS011;5776;51.814;4.510;2023-04-24T14:28:36;9.73;;;2.90;;
11439;SDS011;5776;51.814;4.510;2023-04-24T14:31:02;12.67;;;2.50;;
11439;SDS011;5776;51.814;4.510;2023-04-24T14:33:28;13.93;;;2.90;;
11439;SDS011;5776;51.814;4.510;2023-04-24T14:35:54;13.13;;;3.07;;
11439;SDS011;5776;51.814;4.510;2023-04-24T14:38:20;16.47;;;3.40;;
11439;SDS011;5776;51.814;4.510;2023-04-24T14:40:47;12.37;;;4.03;;
11439;SDS011;5776;51.814;4.510;2023-04-24T14:43:13;12.87;;;3.60;;
11439;SDS011;5776;51.814;4.510;2023-04-24T14:45:39;11.63;;;3.03;;
11439;SDS011;5776;51.814;4.510;2023-04-24T14:48:07;11.70;;;3.20;;
11439;SDS011;5776;51.814;4.510;2023-04-24T14:50:33;11.33;;;3.63;;
11439;SDS011;5776;51.814;4.510;2023-04-24T14:52:59;12.60;;;3.70;;
11439;SDS011;5776;51.814;4.510;2023-04-24T14:55:27;11.87;;;3.87;;
11439;SDS011;5776;51.814;4.510;2023-04-24T14:57:54;12.23;;;3.17;;
11439;SDS011;5776;51.814;4.510;2023-04-24T15:00:21;6.53;;;2.07;;
11439;SDS011;5776;51.814;4.510;2023-04-24T15:02:48;10.33;;;3.27;;
11439;SDS011;5776;51.814;4.510;2023-04-24T15:05:14;7.13;;;2.40;;
11439;SDS011;5776;51.814;4.510;2023-04-24T15:07:40;10.47;;;2.90;;